createdAt,value
2019-06-20T00:03:35.125Z,91.60
2019-06-20T00:08:39.863Z,91.50
2019-06-20T00:13:44.424Z,91.40
2019-06-20T00:18:48.900Z,91.30
2019-06-20T00:23:53.431Z,91.20
2019-06-20T00:28:57.722Z,91.40
2019-06-20T00:34:02.367Z,91.40
2019-06-20T00:39:07.643Z,91.00
2019-06-20T00:44:11.991Z,90.90
2019-06-20T00:49:16.338Z,91.00
2019-06-20T00:54:20.967Z,91.00
2019-06-20T00:59:25.273Z,90.90
2019-06-20T01:04:29.722Z,90.90
2019-06-20T01:09:34.040Z,91.10
2019-06-20T01:14:38.586Z,90.90
2019-06-20T01:19:42.888Z,90.80
2019-06-20T01:24:47.283Z,90.70
2019-06-20T01:29:51.736Z,90.60
2019-06-20T01:34:56.206Z,90.60
2019-06-20T01:40:00.546Z,90.90
2019-06-20T01:45:05.935Z,91.10
2019-06-20T01:50:10.354Z,90.90
2019-06-20T01:55:14.757Z,90.70
2019-06-20T02:00:53.483Z,90.50
2019-06-20T02:05:57.917Z,90.90
2019-06-20T02:11:02.265Z,90.80
2019-06-20T02:16:06.894Z,90.70
2019-06-20T02:21:11.742Z,90.80
2019-06-20T02:26:16.189Z,91.20
2019-06-20T02:31:20.637Z,91.20
2019-06-20T02:36:25.422Z,91.50
2019-06-20T02:41:29.809Z,91.30
2019-06-20T02:46:34.262Z,91.50
2019-06-20T02:51:39.328Z,91.60
2019-06-20T02:56:43.771Z,91.70
2019-06-20T03:01:48.575Z,91.70
2019-06-20T03:06:53.001Z,91.70
2019-06-20T03:11:57.700Z,91.60
2019-06-20T03:17:02.203Z,91.30
2019-06-20T03:22:06.522Z,91.30
2019-06-20T03:27:11.166Z,91.20
2019-06-20T03:32:15.904Z,91.00
2019-06-20T03:37:20.259Z,91.20
2019-06-20T03:42:24.596Z,91.00
2019-06-20T03:47:28.895Z,90.80
2019-06-20T03:52:33.259Z,90.80
2019-06-20T03:57:37.665Z,90.80
2019-06-20T04:02:42.321Z,90.70
2019-06-20T04:07:46.904Z,90.30
2019-06-20T04:12:51.507Z,90.60
2019-06-20T04:17:56.370Z,90.30
2019-06-20T04:23:00.736Z,90.60
2019-06-20T04:28:05.416Z,90.20
2019-06-20T04:33:09.783Z,90.20
2019-06-20T04:38:14.304Z,90.60
2019-06-20T04:43:18.739Z,90.50
2019-06-20T04:48:23.333Z,90.60
2019-06-20T04:53:27.724Z,90.40
2019-06-20T04:58:32.254Z,90.20
2019-06-20T05:03:36.659Z,89.50
2019-06-20T05:08:41.636Z,89.30
2019-06-20T05:13:46.067Z,89.10
2019-06-20T05:18:50.580Z,88.90
2019-06-20T05:23:55.131Z,88.10
2019-06-20T05:28:59.647Z,88.60
2019-06-20T05:34:04.210Z,88.10
2019-06-20T05:39:08.862Z,87.70
2019-06-20T05:44:13.395Z,87.90
2019-06-20T05:49:19.045Z,88.60
2019-06-20T05:54:23.795Z,88.70
2019-06-20T05:59:28.222Z,88.40
2019-06-20T06:04:32.911Z,88.70
2019-06-20T06:09:37.188Z,88.10
2019-06-20T06:14:41.716Z,87.70
2019-06-20T06:19:46.347Z,87.10
2019-06-20T06:24:50.873Z,87.20
2019-06-20T06:29:55.455Z,86.90
2019-06-20T06:34:59.953Z,86.00
2019-06-20T06:40:05.459Z,86.30
2019-06-20T06:45:10.941Z,85.50
2019-06-20T06:50:16.014Z,84.00
2019-06-20T06:55:20.650Z,82.20
2019-06-20T07:00:25.006Z,79.70
2019-06-20T07:05:29.322Z,78.00
2019-06-20T07:10:34.299Z,77.80
2019-06-20T07:15:38.755Z,80.20
2019-06-20T07:20:43.216Z,80.20
2019-06-20T07:25:47.674Z,81.50
2019-06-20T07:30:52.064Z,82.00
2019-06-20T07:35:56.389Z,82.00
2019-06-20T07:41:00.947Z,81.60
2019-06-20T07:46:05.370Z,79.70
2019-06-20T07:51:09.803Z,78.00
2019-06-20T07:56:14.196Z,77.30
2019-06-20T08:01:18.715Z,73.80
2019-06-20T08:06:23.194Z,71.70
2019-06-20T08:11:27.623Z,71.70
2019-06-20T08:16:32.138Z,73.70
2019-06-20T08:21:36.466Z,73.50
2019-06-20T08:26:40.837Z,75.40
2019-06-20T08:31:45.250Z,75.20
2019-06-20T08:36:49.695Z,75.50
2019-06-20T08:41:54.014Z,76.60
2019-06-20T08:47:00.256Z,74.70
2019-06-20T08:52:05.515Z,75.40
2019-06-20T08:57:10.135Z,74.90
2019-06-20T09:02:14.672Z,73.10
2019-06-20T09:07:18.987Z,71.40
2019-06-20T09:12:23.445Z,71.40
2019-06-20T09:17:27.894Z,70.50
2019-06-20T09:22:32.604Z,69.70
2019-06-20T09:27:36.926Z,69.20
2019-06-20T09:32:41.401Z,66.50
2019-06-20T09:37:45.730Z,66.00
2019-06-20T09:42:51.158Z,68.60
2019-06-20T09:47:56.060Z,68.50
2019-06-20T09:53:00.403Z,66.10
2019-06-20T09:58:05.081Z,63.30
2019-06-20T10:03:10.021Z,64.50
2019-06-20T10:08:16.778Z,62.10
2019-06-20T10:13:21.295Z,61.10
2019-06-20T10:18:27.255Z,61.90
2019-06-20T10:23:31.578Z,59.50
2019-06-20T10:28:35.870Z,60.00
2019-06-20T10:33:40.209Z,61.80
2019-06-20T10:38:45.319Z,58.50
2019-06-20T10:43:51.754Z,58.70
2019-06-20T10:48:56.092Z,58.10
2019-06-20T10:54:00.474Z,59.00
2019-06-20T10:59:05.065Z,59.60
2019-06-20T11:04:09.438Z,61.50
2019-06-20T11:09:13.843Z,63.50
2019-06-20T11:14:18.169Z,60.90
2019-06-20T11:19:22.442Z,58.40
2019-06-20T11:24:26.696Z,58.10
2019-06-20T11:29:30.968Z,59.00
2019-06-20T11:34:35.226Z,57.60
2019-06-20T11:39:40.762Z,56.80
2019-06-20T11:44:45.426Z,55.70
2019-06-20T11:49:49.717Z,57.60
2019-06-20T11:54:54.060Z,53.00
2019-06-20T11:59:58.422Z,53.40
2019-06-20T12:05:02.837Z,54.40
2019-06-20T12:10:07.449Z,54.10
2019-06-20T12:15:12.487Z,50.80
2019-06-20T12:20:16.995Z,52.30
2019-06-20T12:25:21.254Z,52.30
2019-06-20T12:30:25.646Z,54.80
2019-06-20T12:35:29.952Z,56.60
2019-06-20T12:40:34.266Z,58.00
2019-06-20T12:45:40.023Z,58.50
2019-06-20T12:50:45.148Z,56.30
2019-06-20T12:55:50.746Z,57.30
2019-06-20T13:00:55.169Z,55.90
2019-06-20T13:05:59.475Z,54.60
2019-06-20T13:11:03.747Z,55.30
2019-06-20T13:16:08.066Z,53.20
2019-06-20T13:21:12.319Z,55.40
2019-06-20T13:26:16.591Z,53.80
2019-06-20T13:31:21.141Z,54.80
2019-06-20T13:36:25.406Z,54.40
2019-06-20T13:41:29.725Z,55.70
2019-06-20T13:46:34.035Z,57.70
2019-06-20T13:51:39.928Z,55.40
2019-06-20T13:56:45.362Z,56.00
2019-06-20T14:01:49.691Z,51.70
2019-06-20T14:06:53.991Z,51.80
2019-06-20T14:11:58.299Z,49.50
2019-06-20T14:17:02.642Z,51.20
2019-06-20T14:22:06.890Z,49.60
2019-06-20T14:27:11.166Z,49.60
2019-06-20T14:32:22.161Z,50.20
2019-06-20T14:37:21.438Z,52.70
2019-06-20T14:42:25.634Z,53.10
2019-06-20T14:47:29.904Z,53.90
2019-06-20T14:52:34.209Z,53.90
2019-06-20T14:57:38.614Z,54.40
2019-06-20T15:02:45.102Z,54.60
2019-06-20T15:07:49.499Z,54.10
2019-06-20T15:12:55.887Z,53.90
2019-06-20T15:18:00.553Z,54.10
2019-06-20T15:23:04.932Z,55.00
2019-06-20T15:28:09.232Z,55.00
2019-06-20T15:33:13.647Z,54.60
2019-06-20T15:38:17.920Z,55.20
2019-06-20T15:43:22.271Z,54.80
2019-06-20T15:48:26.597Z,55.90
2019-06-20T15:53:31.028Z,55.00
2019-06-20T15:58:35.350Z,54.50
2019-06-20T16:03:39.635Z,53.70
2019-06-20T16:08:43.988Z,54.40
2019-06-20T16:13:50.209Z,55.40
2019-06-20T16:18:54.652Z,54.30
2019-06-20T16:23:59.062Z,53.20
2019-06-20T16:29:03.474Z,53.90
2019-06-20T16:34:07.773Z,52.60
2019-06-20T16:39:12.302Z,52.60
2019-06-20T16:44:16.686Z,53.40
2019-06-20T16:49:21.022Z,52.40
2019-06-20T16:54:25.270Z,52.00
2019-06-20T16:59:29.552Z,53.40
2019-06-20T17:04:33.901Z,52.10
2019-06-20T17:09:38.185Z,50.90
2019-06-20T17:14:42.499Z,51.80
2019-06-20T17:19:46.794Z,51.50
2019-06-20T17:24:51.089Z,51.40
2019-06-20T17:29:55.477Z,50.90
2019-06-20T17:34:59.759Z,50.50
2019-06-20T17:40:04.807Z,49.60
2019-06-20T17:45:10.649Z,49.00
2019-06-20T17:50:15.519Z,48.70
2019-06-20T17:55:20.263Z,48.40
2019-06-20T18:00:26.179Z,49.40
2019-06-20T18:05:30.502Z,49.50
2019-06-20T18:10:34.830Z,48.00
2019-06-20T18:15:39.130Z,49.30
2019-06-20T18:20:43.483Z,46.40
2019-06-20T18:25:47.803Z,47.30
2019-06-20T18:30:52.114Z,47.20
2019-06-20T18:35:56.460Z,48.10
2019-06-20T18:41:00.745Z,49.00
2019-06-20T18:46:05.055Z,50.10
2019-06-20T18:51:09.385Z,49.80
2019-06-20T18:56:13.688Z,50.40
2019-06-20T19:01:18.035Z,49.50
2019-06-20T19:06:35.409Z,50.10
2019-06-20T19:11:28.638Z,50.00
2019-06-20T19:16:33.100Z,51.60
2019-06-20T19:21:37.439Z,51.60
2019-06-20T19:26:41.917Z,52.20
2019-06-20T19:31:47.129Z,51.50
2019-06-20T19:36:51.712Z,52.00
2019-06-20T19:41:56.118Z,52.70
2019-06-20T19:47:01.094Z,53.80
2019-06-20T19:52:05.458Z,54.30
2019-06-20T19:57:09.718Z,55.10
2019-06-20T20:02:14.092Z,56.00
2019-06-20T20:07:18.533Z,56.90
2019-06-20T20:12:22.867Z,57.90
2019-06-20T20:17:27.187Z,58.90
2019-06-20T20:22:31.671Z,59.60
2019-06-20T20:27:36.028Z,60.30
2019-06-20T20:32:40.422Z,61.80
2019-06-20T20:37:44.891Z,61.60
2019-06-20T20:42:49.395Z,63.60
2019-06-20T20:47:53.723Z,64.60
2019-06-20T20:52:58.055Z,66.20
2019-06-20T20:58:02.876Z,67.90
2019-06-20T21:03:07.649Z,68.50
2019-06-20T21:08:17.060Z,68.80
2019-06-20T21:13:30.497Z,70.50
2019-06-20T21:18:34.863Z,72.50
2019-06-20T21:23:39.428Z,72.90
2019-06-20T21:28:43.820Z,73.00
2019-06-20T21:33:48.277Z,72.90
2019-06-20T21:38:52.678Z,73.50
2019-06-20T21:43:56.994Z,74.50
2019-06-20T21:49:01.400Z,75.10
2019-06-20T21:54:06.021Z,76.00
2019-06-20T21:59:10.560Z,77.00
2019-06-20T22:04:14.978Z,77.90
2019-06-20T22:09:19.655Z,77.80
2019-06-20T22:14:24.006Z,79.00
2019-06-20T22:19:28.339Z,78.90
2019-06-20T22:24:32.809Z,78.60
2019-06-20T22:29:37.304Z,78.20
2019-06-20T22:34:41.710Z,79.90
2019-06-20T22:39:46.128Z,80.20
2019-06-20T22:44:50.495Z,80.40
2019-06-20T22:49:55.035Z,79.80
2019-06-20T22:54:59.527Z,79.60
2019-06-20T23:00:04.845Z,80.10
2019-06-20T23:05:09.601Z,79.60
2019-06-20T23:10:15.359Z,80.90
2019-06-20T23:15:19.911Z,81.30
2019-06-20T23:20:24.387Z,81.10
2019-06-20T23:25:29.804Z,81.60
2019-06-20T23:30:34.192Z,81.90
2019-06-20T23:35:38.950Z,81.40
2019-06-20T23:41:03.246Z,81.40
2019-06-20T23:46:07.571Z,81.50
2019-06-20T23:51:24.920Z,82.20
2019-06-20T23:56:19.415Z,82.10
